Terminal Aerodrome Forecast
Issued by NWS Mt. Holly, NJ

Home | Current Version | Previous Version | Text Only | Print | Product List | Glossary On
Versions: 1 2 3 4 5 6 7 8 9 10 11 12 13 14 15 16 17 18 19
000
FTUS41 KPHI 270524
TAFTTN
TAF
KTTN 270524Z 2706/2806 33008KT P6SM SCT015 OVC080
      TEMPO 2706/2710 4SM -RA BR OVC015
     FM271000 34008KT P6SM SCT025 BKN080
      TEMPO 2710/2714 -RA OVC025
     FM271400 34008G16KT P6SM BKN045
     FM280000 35008KT P6SM SCT045 BKN100=

USA.gov is the U.S. government's official web portal to all federal, state and local government web resources and services.